Time;durP1;ratioP1;P1;durP2;ratioP2;P2;SDS_P1;SDS_P2;PMS_P1;PMS_P2;Temp;Humidity;BMP_temperature;BMP_pressure;BME280_temperature;BME280_humidity;BME280_pressure;Samples;Min_cycle;Max_cycle;Signal;HPM_P1;HPM_P2
2023/03/24 00:00:00;;;;;;;3.47;2.67;;;11.40;99.90;;;;;;5043101;28;20036;-84
2023/03/24 00:02:27;;;;;;;4.05;2.42;;;11.40;99.90;;;;;;5019419;28;20039;-84
2023/03/24 00:04:57;;;;;;;2.60;2.40;;;11.30;99.90;;;;;;5032769;28;20086;-84
2023/03/24 00:07:24;;;;;;;3.20;2.22;;;11.30;99.90;;;;;;5055602;28;20033;-84
2023/03/24 00:09:50;;;;;;;3.92;2.30;;;11.30;99.90;;;;;;5016761;28;20044;-84
2023/03/24 00:12:18;;;;;;;5.13;2.78;;;11.30;99.90;;;;;;5035390;28;20036;-82
2023/03/24 00:14:47;;;;;;;2.95;2.50;;;11.30;99.90;;;;;;5067139;28;20036;-85
2023/03/24 00:17:16;;;;;;;3.45;2.67;;;11.40;99.90;;;;;;5043375;28;20123;-86
2023/03/24 00:19:44;;;;;;;4.35;2.50;;;11.40;99.90;;;;;;5045115;28;20029;-85
2023/03/24 00:22:13;;;;;;;2.78;2.35;;;11.40;99.90;;;;;;5021406;28;20618;-84
2023/03/24 00:24:45;;;;;;;6.20;2.70;;;11.30;99.90;;;;;;5002963;28;20111;-83
2023/03/24 00:27:16;;;;;;;5.10;2.45;;;11.30;99.90;;;;;;5016858;28;20040;-83
2023/03/24 00:29:42;;;;;;;3.78;2.60;;;11.30;99.90;;;;;;5018780;28;20028;-85
2023/03/24 00:32:08;;;;;;;4.00;2.65;;;11.30;99.90;;;;;;5027966;28;20025;-85
2023/03/24 00:34:37;;;;;;;4.28;2.72;;;11.30;99.90;;;;;;5051188;28;20035;-84
2023/03/24 00:37:06;;;;;;;2.65;2.30;;;11.20;99.90;;;;;;5019722;28;20033;-84
2023/03/24 00:39:32;;;;;;;3.15;2.85;;;11.20;99.90;;;;;;5012515;28;20051;-85
2023/03/24 00:42:00;;;;;;;2.97;2.25;;;11.20;99.90;;;;;;5034615;28;20035;-84
2023/03/24 00:44:26;;;;;;;4.55;2.70;;;11.20;99.90;;;;;;5018931;28;20029;-86
2023/03/24 00:46:55;;;;;;;4.55;2.35;;;11.20;99.90;;;;;;5029121;28;20020;-86
2023/03/24 00:49:43;;;;;;;2.90;2.35;;;11.20;99.90;;;;;;5020399;28;20032;-84
2023/03/24 00:52:33;;;;;;;4.07;2.63;;;11.10;99.90;;;;;;5048285;28;20043;-84
2023/03/24 00:55:00;;;;;;;5.15;2.40;;;11.10;99.90;;;;;;5031153;28;20038;-85
2023/03/24 00:57:28;;;;;;;4.35;2.67;;;11.00;99.90;;;;;;5019257;28;20037;-86
2023/03/24 00:59:56;;;;;;;3.78;2.60;;;11.00;99.90;;;;;;5020966;28;20500;-85
2023/03/24 01:02:26;;;;;;;3.30;2.65;;;11.00;99.90;;;;;;5034727;28;20472;-86
2023/03/24 01:04:57;;;;;;;4.65;2.78;;;11.00;99.90;;;;;;5045830;28;20386;-84
2023/03/24 01:07:25;;;;;;;3.88;2.65;;;11.00;99.90;;;;;;5020702;28;20029;-85
2023/03/24 01:09:58;;;;;;;5.80;2.50;;;11.10;99.90;;;;;;5046352;28;20409;-83
2023/03/24 01:12:35;;;;;;;2.92;2.63;;;11.10;99.90;;;;;;5025942;28;20135;-83
2023/03/24 01:15:05;;;;;;;4.00;2.65;;;11.10;99.90;;;;;;5033576;28;20081;-83
2023/03/24 01:17:33;;;;;;;3.92;2.92;;;11.10;99.90;;;;;;5049388;28;20028;-82
2023/03/24 01:20:05;;;;;;;3.83;2.75;;;11.10;99.90;;;;;;5012841;28;20040;-83
2023/03/24 01:22:36;;;;;;;4.68;2.65;;;11.10;99.90;;;;;;5041302;28;20056;-82
2023/03/24 01:25:03;;;;;;;3.00;2.50;;;11.10;99.90;;;;;;5028716;28;20207;-83
2023/03/24 01:27:30;;;;;;;4.25;2.90;;;11.00;99.90;;;;;;5039875;28;20493;-83
2023/03/24 01:30:01;;;;;;;3.60;2.50;;;11.00;99.90;;;;;;5035970;28;20409;-82
2023/03/24 01:32:28;;;;;;;3.08;2.60;;;11.00;99.90;;;;;;5033616;28;20101;-83
2023/03/24 01:34:54;;;;;;;4.22;2.42;;;10.90;99.90;;;;;;5052036;28;20450;-85
2023/03/24 01:37:22;;;;;;;5.38;2.70;;;10.90;99.90;;;;;;5019488;28;20036;-84
2023/03/24 01:39:49;;;;;;;3.38;2.65;;;10.90;99.90;;;;;;5044349;28;20021;-85
2023/03/24 01:42:22;;;;;;;2.75;2.50;;;10.80;99.90;;;;;;5019554;28;20029;-83
2023/03/24 01:44:50;;;;;;;5.38;2.80;;;10.80;99.90;;;;;;5000210;28;20041;-83
2023/03/24 01:47:16;;;;;;;4.72;2.42;;;10.80;99.90;;;;;;5048949;28;20039;-83
2023/03/24 01:49:44;;;;;;;4.47;2.55;;;10.80;99.90;;;;;;5040972;28;20090;-83
2023/03/24 01:52:21;;;;;;;4.97;2.97;;;10.70;99.90;;;;;;5048111;28;20024;-83
2023/03/24 01:54:53;;;;;;;4.40;2.65;;;10.70;99.90;;;;;;5031366;28;20385;-83
2023/03/24 01:57:26;;;;;;;3.97;2.88;;;10.70;99.90;;;;;;5022705;28;20395;-82
2023/03/24 01:59:56;;;;;;;3.20;2.80;;;10.60;99.90;;;;;;5026952;28;20029;-82
2023/03/24 02:02:57;;;;;;;3.17;2.60;;;10.50;99.90;;;;;;5046990;28;20380;-82
2023/03/24 02:05:30;;;;;;;3.97;3.20;;;10.50;99.90;;;;;;5019017;28;20699;-83
2023/03/24 02:08:34;;;;;;;3.40;3.00;;;10.40;99.90;;;;;;5004583;28;20033;-82
2023/03/24 02:11:01;;;;;;;3.80;2.60;;;10.40;99.90;;;;;;5037167;28;20033;-83
2023/03/24 02:13:36;;;;;;;4.43;2.75;;;10.40;99.90;;;;;;5038796;28;20102;-83
2023/03/24 02:16:17;;;;;;;3.63;3.05;;;10.40;99.90;;;;;;5022120;28;20040;-83
2023/03/24 02:19:17;;;;;;;4.00;3.13;;;10.40;99.90;;;;;;5033746;28;20028;-84
2023/03/24 02:22:16;;;;;;;3.80;2.90;;;10.40;99.90;;;;;;5033329;28;20062;-84
2023/03/24 02:24:57;;;;;;;3.70;3.05;;;10.30;99.90;;;;;;5034679;28;20028;-84
2023/03/24 02:27:43;;;;;;;7.60;3.55;;;10.30;99.90;;;;;;5036966;28;20033;-84
2023/03/24 02:30:39;;;;;;;5.55;3.92;;;10.30;99.90;;;;;;5015655;28;20124;-83
2023/03/24 02:33:20;;;;;;;5.15;3.63;;;10.30;99.90;;;;;;5042303;28;20037;-83
2023/03/24 02:36:04;;;;;;;5.97;3.65;;;10.30;99.90;;;;;;5034223;28;20128;-86
2023/03/24 02:39:05;;;;;;;4.15;3.35;;;10.40;99.90;;;;;;5049833;28;20032;-86
2023/03/24 02:42:03;;;;;;;5.05;3.58;;;10.40;99.90;;;;;;5041192;28;20044;-86
2023/03/24 02:45:11;;;;;;;5.72;3.45;;;10.50;99.90;;;;;;5050504;28;20033;-87
2023/03/24 02:47:48;;;;;;;5.43;4.05;;;10.50;99.90;;;;;;4999087;28;20056;-86
2023/03/24 02:50:26;;;;;;;4.90;3.42;;;10.50;99.90;;;;;;5039930;28;20405;-84
2023/03/24 02:53:05;;;;;;;4.32;3.08;;;10.50;99.90;;;;;;5031026;28;20480;-86
2023/03/24 02:55:43;;;;;;;3.85;3.20;;;10.60;99.90;;;;;;5048302;28;20021;-87
2023/03/24 02:58:21;;;;;;;4.07;3.40;;;10.60;99.90;;;;;;5057227;28;20040;-87
2023/03/24 03:01:05;;;;;;;4.97;3.55;;;10.60;99.90;;;;;;5068654;28;20024;-83
2023/03/24 03:03:51;;;;;;;8.30;3.33;;;10.60;99.90;;;;;;5049487;28;20444;-84
2023/03/24 03:06:32;;;;;;;7.72;3.65;;;10.60;99.90;;;;;;5018595;28;20025;-84
2023/03/24 03:09:06;;;;;;;5.03;3.38;;;10.70;99.90;;;;;;5032851;28;20044;-86
2023/03/24 03:11:32;;;;;;;5.95;3.58;;;10.60;99.90;;;;;;5048719;28;20516;-87
2023/03/24 03:14:04;;;;;;;5.95;3.53;;;10.60;99.90;;;;;;5045151;28;20531;-86
2023/03/24 03:16:37;;;;;;;4.60;3.53;;;10.60;99.90;;;;;;5047579;28;20040;-84
2023/03/24 03:19:44;;;;;;;4.25;3.60;;;10.60;99.90;;;;;;5037635;28;20028;-85
2023/03/24 03:22:21;;;;;;;4.38;3.72;;;10.60;99.90;;;;;;5001800;28;20413;-86
2023/03/24 03:24:51;;;;;;;5.20;3.63;;;10.50;99.90;;;;;;5012666;28;20120;-86
2023/03/24 03:27:27;;;;;;;6.35;3.80;;;10.60;99.90;;;;;;5005966;28;20044;-85
2023/03/24 03:30:03;;;;;;;4.47;3.72;;;10.60;99.90;;;;;;5020404;28;20032;-86
2023/03/24 03:32:33;;;;;;;4.35;3.42;;;10.50;99.90;;;;;;5036388;28;20489;-84
2023/03/24 03:35:28;;;;;;;4.78;3.90;;;10.50;99.90;;;;;;5009935;28;20048;-87
2023/03/24 03:38:24;;;;;;;5.20;3.67;;;10.50;99.90;;;;;;5050870;28;20034;-86
2023/03/24 03:40:54;;;;;;;4.07;3.45;;;10.40;99.90;;;;;;5035425;28;20024;-83
2023/03/24 03:43:26;;;;;;;5.18;4.40;;;10.40;99.90;;;;;;5014242;28;20033;-84
2023/03/24 03:45:53;;;;;;;6.57;4.43;;;10.30;99.90;;;;;;5047311;28;20037;-86
2023/03/24 03:48:25;;;;;;;7.90;4.00;;;10.30;99.90;;;;;;5052328;28;20123;-85
2023/03/24 03:50:53;;;;;;;5.45;3.75;;;10.40;99.90;;;;;;5008421;28;20032;-84
2023/03/24 03:53:23;;;;;;;6.82;3.50;;;10.40;99.90;;;;;;5032630;28;20036;-87
2023/03/24 03:55:51;;;;;;;4.80;3.72;;;10.40;99.90;;;;;;5037615;28;20115;-88
2023/03/24 03:58:17;;;;;;;5.07;3.60;;;10.40;99.90;;;;;;5022328;28;20033;-88
2023/03/24 04:00:54;;;;;;;4.93;3.85;;;10.40;99.90;;;;;;5039325;28;20395;-87
2023/03/24 04:04:09;;;;;;;5.90;4.20;;;10.40;99.90;;;;;;5031350;28;20036;-87
2023/03/24 04:07:14;;;;;;;4.57;3.75;;;10.40;99.90;;;;;;5038615;28;20056;-86
2023/03/24 04:10:14;;;;;;;4.88;3.58;;;10.40;99.90;;;;;;5053807;28;20591;-86
2023/03/24 04:12:56;;;;;;;4.60;3.75;;;10.40;99.90;;;;;;5020879;28;20044;-85
2023/03/24 04:16:55;;;;;;;4.85;3.70;;;10.40;99.90;;;;;;5041928;28;20028;-86
2023/03/24 04:19:37;;;;;;;6.55;3.47;;;10.40;99.90;;;;;;4995688;28;20052;-85
2023/03/24 04:22:26;;;;;;;5.15;3.92;;;10.40;99.90;;;;;;5046220;28;20036;-85
2023/03/24 04:25:17;;;;;;;6.32;3.70;;;10.30;99.90;;;;;;5053412;28;20032;-84
2023/03/24 04:28:09;;;;;;;4.93;3.67;;;10.20;99.90;;;;;;5060166;28;20025;-84
2023/03/24 04:30:36;;;;;;;4.65;3.45;;;10.20;99.90;;;;;;5038362;28;20052;-86
2023/03/24 04:33:17;;;;;;;4.07;3.67;;;10.20;99.90;;;;;;5062132;28;20084;-84
2023/03/24 04:35:56;;;;;;;4.60;3.97;;;10.20;99.90;;;;;;5066197;28;20531;-85
2023/03/24 04:38:37;;;;;;;4.53;3.70;;;10.20;99.90;;;;;;5040191;28;20286;-83
2023/03/24 04:41:16;;;;;;;6.63;4.43;;;10.10;99.90;;;;;;5022629;28;20033;-86
2023/03/24 04:43:47;;;;;;;4.75;3.70;;;10.10;99.90;;;;;;5053584;28;20025;-83
2023/03/24 04:46:16;;;;;;;5.10;4.40;;;10.20;99.90;;;;;;5037947;28;20455;-87
2023/03/24 04:49:08;;;;;;;4.45;3.95;;;10.30;99.90;;;;;;5041790;28;20028;-85
2023/03/24 04:51:37;;;;;;;6.47;4.32;;;10.40;99.90;;;;;;5027850;28;20025;-85
2023/03/24 04:54:06;;;;;;;4.68;3.63;;;10.40;99.90;;;;;;5023315;28;20072;-85
2023/03/24 04:56:46;;;;;;;5.25;3.80;;;10.30;99.90;;;;;;5003857;28;20081;-84
2023/03/24 04:59:23;;;;;;;4.40;3.38;;;10.20;99.90;;;;;;5052895;28;20021;-84
2023/03/24 05:01:49;;;;;;;5.40;3.60;;;10.10;99.90;;;;;;5046219;28;20064;-84
2023/03/24 05:04:23;;;;;;;5.80;4.05;;;10.10;99.90;;;;;;5023511;28;20469;-85
2023/03/24 05:06:50;;;;;;;5.03;3.95;;;10.10;99.90;;;;;;5047101;28;20051;-85
2023/03/24 05:09:21;;;;;;;8.73;4.20;;;10.10;99.90;;;;;;5020952;28;20674;-86
2023/03/24 05:11:48;;;;;;;4.95;3.72;;;10.10;99.90;;;;;;5046980;28;20175;-86
2023/03/24 05:14:15;;;;;;;6.57;4.25;;;10.10;99.90;;;;;;5024968;28;20036;-85
2023/03/24 05:16:42;;;;;;;6.00;4.00;;;10.10;99.90;;;;;;5027536;28;20489;-85
2023/03/24 05:19:08;;;;;;;5.50;3.80;;;10.20;99.90;;;;;;5048534;28;20131;-85
2023/03/24 05:21:34;;;;;;;7.78;4.10;;;10.30;99.90;;;;;;4988193;28;20139;-85
2023/03/24 05:24:02;;;;;;;6.03;4.22;;;10.30;99.90;;;;;;5033192;28;20050;-84
2023/03/24 05:26:27;;;;;;;7.70;4.07;;;10.40;99.90;;;;;;5015383;28;20485;-84
2023/03/24 05:29:07;;;;;;;7.28;4.32;;;10.40;99.90;;;;;;5029286;28;20452;-85
2023/03/24 05:31:33;;;;;;;7.35;4.70;;;10.40;99.90;;;;;;5021051;28;20460;-85
2023/03/24 05:34:07;;;;;;;7.68;4.50;;;10.30;99.90;;;;;;5018356;28;20128;-86
2023/03/24 05:36:43;;;;;;;6.80;4.45;;;10.30;99.90;;;;;;5001807;28;20079;-85
2023/03/24 05:39:09;;;;;;;7.95;4.57;;;10.30;99.90;;;;;;5026357;28;20473;-84
2023/03/24 05:41:48;;;;;;;6.20;4.82;;;10.20;99.90;;;;;;5031265;28;20081;-85
2023/03/24 05:44:14;;;;;;;7.57;5.18;;;10.30;99.90;;;;;;5004542;28;20033;-84
2023/03/24 05:46:41;;;;;;;4.90;3.78;;;10.30;99.90;;;;;;5004024;28;20175;-87
2023/03/24 05:49:07;;;;;;;5.03;4.38;;;10.30;99.90;;;;;;5026801;28;20120;-86
2023/03/24 05:51:38;;;;;;;5.85;4.68;;;10.30;99.90;;;;;;5007748;28;20032;-87
2023/03/24 05:54:06;;;;;;;4.63;3.92;;;10.30;99.90;;;;;;5032224;28;20033;-84
2023/03/24 05:56:35;;;;;;;5.93;4.38;;;10.30;99.90;;;;;;5029907;28;20456;-85
2023/03/24 05:59:17;;;;;;;7.18;4.88;;;10.40;99.90;;;;;;5051955;28;20039;-84
2023/03/24 06:01:49;;;;;;;6.25;4.57;;;10.40;99.90;;;;;;5027901;28;20111;-84
2023/03/24 06:04:31;;;;;;;6.40;4.97;;;10.40;99.90;;;;;;4997214;28;20081;-85
2023/03/24 06:07:04;;;;;;;5.10;4.07;;;10.40;99.90;;;;;;5021164;28;20399;-86
2023/03/24 06:09:34;;;;;;;5.72;4.47;;;10.40;99.90;;;;;;5041726;28;20036;-85
2023/03/24 06:12:02;;;;;;;6.22;4.32;;;10.40;99.90;;;;;;5007121;28;20036;-85
2023/03/24 06:14:32;;;;;;;6.90;4.70;;;10.40;99.90;;;;;;5020380;28;20036;-86
2023/03/24 06:17:07;;;;;;;7.72;4.60;;;10.40;99.90;;;;;;5029532;28;20496;-87
2023/03/24 06:19:33;;;;;;;6.78;4.47;;;10.40;99.90;;;;;;5040977;28;20037;-88
2023/03/24 06:22:11;;;;;;;5.00;3.92;;;10.30;99.90;;;;;;5051538;28;20098;-88
2023/03/24 06:24:38;;;;;;;5.22;4.20;;;10.30;99.90;;;;;;5003415;28;20033;-84
2023/03/24 06:27:07;;;;;;;5.28;3.58;;;10.30;99.90;;;;;;5026832;28;20818;-86
2023/03/24 06:29:35;;;;;;;4.90;3.50;;;10.30;99.90;;;;;;5042340;28;20115;-86
2023/03/24 06:32:02;;;;;;;4.35;3.58;;;10.40;99.90;;;;;;5051011;28;20114;-88
2023/03/24 06:34:31;;;;;;;4.72;3.25;;;10.40;99.90;;;;;;5040186;28;20025;-86
2023/03/24 06:37:26;;;;;;;3.72;3.33;;;10.40;99.90;;;;;;5025544;28;20556;-87
2023/03/24 06:39:52;;;;;;;4.75;3.40;;;10.40;99.90;;;;;;5004359;28;20394;-86
2023/03/24 06:42:22;;;;;;;4.65;3.53;;;10.40;99.90;;;;;;5037494;28;20548;-86
2023/03/24 06:44:48;;;;;;;5.00;3.50;;;10.40;99.90;;;;;;5006637;28;20055;-85
2023/03/24 06:47:14;;;;;;;4.22;3.75;;;10.40;99.90;;;;;;5034523;28;20401;-86
2023/03/24 06:49:40;;;;;;;3.70;3.30;;;10.40;99.90;;;;;;5021596;28;20037;-87
2023/03/24 06:52:06;;;;;;;4.32;2.78;;;10.50;99.90;;;;;;5037722;28;20039;-85
2023/03/24 06:54:36;;;;;;;5.60;3.30;;;10.50;99.90;;;;;;5022394;28;20039;-86
2023/03/24 06:57:02;;;;;;;4.68;3.33;;;10.60;99.90;;;;;;5031441;28;20402;-87
2023/03/24 06:59:48;;;;;;;;;;;10.70;99.90;;;;;;5048198;28;20033;-87
2023/03/24 07:02:14;;;;;;;;;;;10.70;99.90;;;;;;5051720;28;19912;-86
2023/03/24 07:04:44;;;;;;;5.43;2.92;;;10.70;99.90;;;;;;5060553;28;19938;-85
2023/03/24 07:07:32;;;;;;;5.43;3.15;;;10.70;99.90;;;;;;5023946;28;20142;-88
2023/03/24 07:10:27;;;;;;;4.07;3.35;;;10.70;99.90;;;;;;5020772;28;20065;-84
2023/03/24 07:12:53;;;;;;;5.63;3.00;;;10.80;99.90;;;;;;5041834;28;20043;-84
2023/03/24 07:15:19;;;;;;;5.35;3.25;;;10.80;99.90;;;;;;5020937;28;20131;-85
2023/03/24 07:17:45;;;;;;;3.58;3.03;;;10.80;99.90;;;;;;5021974;28;20081;-86
2023/03/24 07:20:30;;;;;;;3.53;2.67;;;10.80;99.90;;;;;;5026655;28;20033;-86
2023/03/24 07:23:08;;;;;;;7.20;3.03;;;10.80;99.90;;;;;;5035873;28;20144;-85
2023/03/24 07:25:53;;;;;;;4.30;3.08;;;10.70;99.90;;;;;;5028609;28;20063;-85
2023/03/24 07:28:48;;;;;;;3.40;3.10;;;10.70;99.90;;;;;;5056995;28;20060;-85
2023/03/24 07:31:24;;;;;;;7.40;3.50;;;10.70;99.90;;;;;;5050388;28;20029;-85
2023/03/24 07:33:57;;;;;;;5.22;4.32;;;10.70;99.90;;;;;;5010928;28;20531;-86
2023/03/24 07:36:23;;;;;;;6.88;3.78;;;10.70;99.90;;;;;;5032464;28;20028;-85
2023/03/24 07:38:48;;;;;;;3.75;3.33;;;10.70;99.90;;;;;;5031838;28;20037;-84
2023/03/24 07:41:23;;;;;;;4.35;3.55;;;10.70;99.90;;;;;;5023042;28;20055;-85
2023/03/24 07:43:55;;;;;;;4.53;4.05;;;10.70;99.90;;;;;;5028801;28;20488;-85
2023/03/24 07:46:24;;;;;;;6.38;3.67;;;10.70;99.90;;;;;;5026645;28;20037;-84
2023/03/24 07:48:50;;;;;;;4.82;3.70;;;10.80;99.90;;;;;;5034760;28;20356;-84
2023/03/24 07:51:18;;;;;;;4.55;3.83;;;10.70;99.90;;;;;;5029421;28;20044;-85
2023/03/24 07:53:55;;;;;;;5.18;4.13;;;10.70;99.90;;;;;;5015227;28;20021;-85
2023/03/24 07:56:30;;;;;;;5.85;4.07;;;10.80;99.90;;;;;;5031205;28;20122;-86
2023/03/24 11:01:42;;;;;;;;;;;13.00;99.90;;;;;;5105212;27;20111;-79
2023/03/24 11:04:12;;;;;;;;;;;13.00;99.90;;;;;;5078023;28;19995;-77
2023/03/24 11:07:10;;;;;;;1.58;1.48;;;13.10;99.90;;;;;;5096015;28;19943;-79
2023/03/24 11:09:44;;;;;;;1.40;1.30;;;13.30;99.90;;;;;;5095561;28;20038;-79
2023/03/24 11:12:43;;;;;;;1.50;1.40;;;13.40;99.90;;;;;;5095020;28;20028;-80
2023/03/24 11:15:22;;;;;;;1.48;1.35;;;13.60;99.90;;;;;;5097180;28;20036;-80
2023/03/24 11:17:54;;;;;;;1.73;1.10;;;13.80;99.90;;;;;;5099838;28;20020;-79
2023/03/24 11:20:35;;;;;;;3.17;1.35;;;13.90;99.90;;;;;;5107664;28;20027;-79
2023/03/24 11:23:00;;;;;;;1.40;1.30;;;13.90;99.90;;;;;;5099724;28;20024;-79
2023/03/24 11:25:28;;;;;;;1.63;1.02;;;13.90;99.90;;;;;;5082378;28;20585;-79
2023/03/24 11:28:07;;;;;;;1.40;1.30;;;13.90;99.90;;;;;;5101202;28;20065;-78
2023/03/24 11:30:44;;;;;;;1.30;1.20;;;13.80;99.90;;;;;;5098623;28;20023;-80
2023/03/24 11:33:28;;;;;;;1.65;1.08;;;13.80;99.90;;;;;;5097215;28;20020;-79
2023/03/24 11:35:53;;;;;;;1.73;1.30;;;13.80;99.90;;;;;;5088895;28;20036;-80
2023/03/24 11:38:29;;;;;;;1.95;1.13;;;13.70;99.90;;;;;;5095168;28;20030;-79
2023/03/24 11:41:03;;;;;;;2.40;1.20;;;13.70;99.90;;;;;;5081617;28;20053;-78
2023/03/24 11:43:29;;;;;;;1.15;1.05;;;13.70;99.90;;;;;;5096816;28;20491;-79
2023/03/24 11:46:12;;;;;;;1.02;0.95;;;13.60;99.90;;;;;;5106915;28;20031;-79
2023/03/24 11:48:51;;;;;;;1.10;0.98;;;13.60;99.90;;;;;;5103740;28;20034;-80
2023/03/24 11:51:38;;;;;;;1.88;1.10;;;13.60;99.90;;;;;;5097062;28;20055;-78
2023/03/24 11:54:17;;;;;;;4.00;1.10;;;13.60;99.90;;;;;;5100462;28;20107;-78
2023/03/24 11:56:57;;;;;;;1.45;1.35;;;13.80;99.90;;;;;;5092028;28;20032;-79
2023/03/24 11:59:28;;;;;;;1.40;1.15;;;14.00;99.90;;;;;;5093177;28;20369;-78
2023/03/24 12:02:06;;;;;;;1.20;1.10;;;14.20;99.90;;;;;;5096747;28;20067;-80
2023/03/24 12:05:10;;;;;;;1.10;1.00;;;14.40;99.90;;;;;;5087709;28;20127;-80
2023/03/24 12:08:15;;;;;;;1.13;1.10;;;14.60;99.90;;;;;;5097610;28;20118;-77
2023/03/24 12:11:05;;;;;;;1.30;1.20;;;14.90;99.90;;;;;;5091646;28;20466;-79
2023/03/24 12:13:37;;;;;;;1.02;0.93;;;15.10;99.90;;;;;;5076675;28;20036;-79
2023/03/24 12:16:26;;;;;;;1.30;0.80;;;15.20;99.90;;;;;;5080441;28;20032;-78
2023/03/24 12:19:34;;;;;;;1.52;1.25;;;15.30;99.90;;;;;;5079745;28;20024;-79
2023/03/24 12:22:07;;;;;;;1.30;1.13;;;15.50;99.90;;;;;;5082906;28;20032;-80
2023/03/24 12:24:54;;;;;;;1.08;0.93;;;15.50;99.90;;;;;;5089404;28;20740;-80
2023/03/24 12:27:30;;;;;;;2.58;1.15;;;15.50;99.90;;;;;;5087844;28;20341;-80
2023/03/24 12:29:59;;;;;;;1.00;0.90;;;15.40;99.90;;;;;;5090333;28;20177;-80
2023/03/24 12:33:00;;;;;;;1.13;0.95;;;15.30;99.90;;;;;;5088594;28;20085;-81
2023/03/24 12:35:41;;;;;;;5.20;2.15;;;15.30;99.90;;;;;;5091760;28;20122;-81
2023/03/24 12:38:33;;;;;;;1.17;0.90;;;15.10;99.90;;;;;;5078906;28;20021;-82
2023/03/24 12:41:17;;;;;;;1.13;1.02;;;15.00;99.90;;;;;;5081711;28;20037;-81
2023/03/24 12:43:54;;;;;;;1.10;1.00;;;14.80;99.90;;;;;;5082895;28;20541;-81
2023/03/24 12:46:47;;;;;;;0.60;0.60;;;14.60;99.90;;;;;;5079863;28;20024;-81
2023/03/24 12:49:28;;;;;;;0.95;0.80;;;14.50;99.90;;;;;;5069359;28;20036;-81
2023/03/24 12:52:15;;;;;;;0.85;0.80;;;14.30;99.90;;;;;;5094579;28;20046;-80
2023/03/24 12:55:28;;;;;;;0.75;0.70;;;14.20;99.90;;;;;;5083858;28;20036;-80
2023/03/24 12:58:25;;;;;;;0.80;0.80;;;14.10;99.90;;;;;;5082701;28;20036;-80
2023/03/24 13:01:04;;;;;;;1.17;0.90;;;14.00;99.90;;;;;;5082709;28;20364;-80
2023/03/24 13:04:04;;;;;;;2.53;1.23;;;14.00;99.90;;;;;;5081526;28;20038;-80
2023/03/24 13:06:46;;;;;;;1.15;1.05;;;13.90;99.90;;;;;;5083156;28;20625;-81
2023/03/24 13:09:35;;;;;;;1.05;0.95;;;13.80;99.90;;;;;;5079739;28;20081;-81
2023/03/24 13:12:23;;;;;;;0.93;0.80;;;13.70;99.90;;;;;;5083421;28;20032;-81
2023/03/24 13:15:02;;;;;;;2.35;1.75;;;13.60;99.90;;;;;;5079567;28;20492;-82
2023/03/24 13:17:38;;;;;;;0.93;0.77;;;13.50;99.90;;;;;;5079756;28;20153;-81
2023/03/24 13:20:11;;;;;;;1.95;1.55;;;13.50;99.90;;;;;;5080781;28;20036;-81
2023/03/24 13:22:37;;;;;;;1.17;1.08;;;13.50;99.90;;;;;;5082393;28;20032;-81
2023/03/24 13:25:33;;;;;;;0.77;0.68;;;13.50;99.90;;;;;;5081117;28;20058;-81
2023/03/24 13:28:06;;;;;;;2.00;1.20;;;13.50;99.90;;;;;;5077987;28;20098;-81
2023/03/24 13:30:37;;;;;;;1.00;0.90;;;13.50;99.90;;;;;;5075756;28;20039;-81
2023/03/24 13:33:15;;;;;;;1.13;0.98;;;13.50;99.90;;;;;;5078952;28;20019;-80
2023/03/24 13:35:57;;;;;;;1.42;1.05;;;13.50;99.90;;;;;;5079608;28;20050;-80
2023/03/24 13:38:42;;;;;;;0.68;0.68;;;13.50;99.90;;;;;;5082723;28;20031;-79
2023/03/24 13:41:15;;;;;;;1.88;0.90;;;13.60;99.90;;;;;;5081942;28;20028;-78
2023/03/24 13:43:50;;;;;;;0.60;0.60;;;13.60;99.90;;;;;;5090734;28;20115;-80
2023/03/24 13:46:18;;;;;;;0.80;0.80;;;13.60;99.90;;;;;;5084219;28;20035;-79
2023/03/24 13:48:50;;;;;;;0.65;0.45;;;13.50;99.90;;;;;;5080455;28;20036;-80
2023/03/24 13:51:25;;;;;;;0.90;0.63;;;13.50;99.90;;;;;;5075420;28;20476;-80
2023/03/24 13:54:00;;;;;;;1.58;0.30;;;13.30;99.90;;;;;;5078817;28;20052;-80
2023/03/24 13:56:40;;;;;;;0.45;0.45;;;13.00;99.90;;;;;;5060633;28;20020;-81
2023/03/24 13:59:19;;;;;;;0.55;0.20;;;12.70;99.90;;;;;;5085173;28;20047;-81
2023/03/24 14:02:17;;;;;;;0.43;0.40;;;12.50;99.90;;;;;;5065948;28;20047;-81
2023/03/24 14:04:49;;;;;;;2.70;0.77;;;12.10;99.90;;;;;;5080778;28;20411;-81
2023/03/24 14:07:30;;;;;;;0.75;0.30;;;11.90;99.90;;;;;;5071257;28;20032;-83
2023/03/24 14:09:59;;;;;;;0.80;0.50;;;11.70;99.90;;;;;;5080927;28;20025;-82
2023/03/24 14:13:03;;;;;;;0.55;0.52;;;11.60;99.90;;;;;;5068355;28;20531;-80
2023/03/24 14:15:56;;;;;;;0.65;0.40;;;11.60;99.90;;;;;;5078876;28;20024;-81
2023/03/24 14:18:24;;;;;;;2.90;0.50;;;11.40;99.90;;;;;;5079487;28;20044;-80
2023/03/24 14:20:56;;;;;;;0.35;0.22;;;11.30;99.90;;;;;;5082849;28;20020;-81
2023/03/24 14:23:44;;;;;;;0.65;0.30;;;11.20;99.90;;;;;;5072483;28;20024;-79
2023/03/24 14:26:22;;;;;;;0.85;0.30;;;11.10;99.90;;;;;;5083681;28;20039;-80
2023/03/24 14:28:52;;;;;;;0.25;0.20;;;11.10;99.90;;;;;;5080866;28;20464;-81
2023/03/24 14:31:30;;;;;;;0.98;0.38;;;11.10;99.90;;;;;;5082269;28;20021;-80
2023/03/24 14:34:01;;;;;;;0.90;0.40;;;11.00;99.90;;;;;;5076428;28;20039;-81
2023/03/24 14:36:39;;;;;;;0.30;0.30;;;11.00;99.90;;;;;;5075749;28;21432;-82
2023/03/24 14:39:33;;;;;;;1.25;0.55;;;11.00;99.90;;;;;;5073379;28;20033;-82
2023/03/24 14:42:00;;;;;;;2.78;0.55;;;11.00;99.90;;;;;;5081869;28;20064;-82
2023/03/24 14:45:06;;;;;;;0.17;0.17;;;10.90;99.90;;;;;;5073393;28;20067;-82
2023/03/24 14:47:37;;;;;;;1.37;0.40;;;10.80;99.90;;;;;;5051018;28;20501;-81
2023/03/24 14:50:17;;;;;;;1.15;0.35;;;10.80;99.90;;;;;;5052832;28;20036;-82
2023/03/24 14:52:50;;;;;;;1.27;0.35;;;10.70;99.90;;;;;;5079129;28;20599;-81
2023/03/24 14:55:18;;;;;;;0.30;0.30;;;10.70;99.90;;;;;;5056516;28;20039;-82
2023/03/24 14:57:58;;;;;;;0.80;0.32;;;10.70;99.90;;;;;;5059713;28;20028;-81
2023/03/24 15:00:34;;;;;;;0.50;0.35;;;10.80;99.90;;;;;;5077634;28;20060;-82
2023/03/24 15:03:26;;;;;;;1.38;0.40;;;10.70;99.90;;;;;;5077395;28;20058;-81
2023/03/24 15:05:52;;;;;;;1.42;0.40;;;10.80;99.90;;;;;;5075883;28;20148;-82
2023/03/24 15:08:25;;;;;;;0.90;0.30;;;10.80;99.90;;;;;;5071849;28;20040;-81
2023/03/24 15:11:04;;;;;;;1.23;0.52;;;10.90;99.90;;;;;;5083522;28;20651;-82
2023/03/24 15:13:43;;;;;;;1.20;0.30;;;10.80;99.90;;;;;;5079580;28;20031;-82
2023/03/24 15:16:09;;;;;;;1.15;0.50;;;10.80;99.90;;;;;;5084251;28;20028;-81
2023/03/24 15:18:42;;;;;;;2.08;1.13;;;10.80;99.90;;;;;;5083952;28;20055;-82
2023/03/24 15:21:45;;;;;;;1.33;0.50;;;10.80;99.90;;;;;;5079633;28;20028;-79
2023/03/24 15:24:20;;;;;;;2.75;1.00;;;10.90;99.90;;;;;;5078778;28;20119;-82
2023/03/24 15:26:53;;;;;;;0.35;0.30;;;10.90;99.90;;;;;;5081829;28;20025;-81
2023/03/24 15:29:20;;;;;;;0.40;0.30;;;11.00;99.90;;;;;;5078217;28;20021;-78
2023/03/24 15:31:46;;;;;;;0.75;0.40;;;11.00;99.90;;;;;;5080124;28;20338;-82
2023/03/24 15:34:27;;;;;;;0.57;0.45;;;11.00;99.90;;;;;;5079202;28;20062;-82
2023/03/24 15:36:58;;;;;;;0.63;0.63;;;11.00;99.90;;;;;;5084717;28;20040;-83
2023/03/24 15:39:32;;;;;;;2.05;0.50;;;11.00;99.90;;;;;;5079987;28;20040;-82
2023/03/24 15:41:58;;;;;;;0.80;0.50;;;11.00;99.90;;;;;;5082750;28;20028;-81
2023/03/24 15:44:29;;;;;;;0.50;0.40;;;11.10;99.90;;;;;;5052658;28;20032;-83
2023/03/24 15:46:57;;;;;;;0.55;0.30;;;11.10;99.90;;;;;;5078572;28;20040;-83
2023/03/24 15:49:29;;;;;;;1.30;0.50;;;11.10;99.90;;;;;;5085219;28;20020;-81
2023/03/24 15:52:33;;;;;;;3.40;0.60;;;11.10;99.90;;;;;;5092432;28;20419;-80
2023/03/24 15:55:06;;;;;;;3.40;0.75;;;11.10;99.90;;;;;;5073410;28;20054;-79
2023/03/24 15:57:41;;;;;;;1.35;0.40;;;11.10;99.90;;;;;;5087534;28;20090;-82
2023/03/24 16:00:17;;;;;;;2.38;0.73;;;11.00;99.90;;;;;;5088836;28;20104;-80
2023/03/24 16:02:50;;;;;;;2.67;1.27;;;10.90;99.90;;;;;;5090541;28;20078;-81
2023/03/24 16:05:22;;;;;;;1.25;0.65;;;10.80;99.90;;;;;;5083518;28;20082;-82
2023/03/24 16:07:56;;;;;;;1.42;0.90;;;10.80;99.90;;;;;;5078076;28;20039;-83
2023/03/24 16:10:38;;;;;;;0.70;0.50;;;10.80;99.90;;;;;;5068683;28;20032;-82
2023/03/24 16:13:18;;;;;;;2.13;0.40;;;10.80;99.90;;;;;;5073322;28;20028;-82
2023/03/24 16:15:58;;;;;;;3.47;0.40;;;10.80;99.90;;;;;;5068732;28;20036;-82
2023/03/24 16:18:33;;;;;;;2.05;0.43;;;10.80;99.90;;;;;;5078708;28;20067;-82
2023/03/24 16:21:01;;;;;;;2.55;0.55;;;10.80;99.90;;;;;;5085652;28;20452;-81
2023/03/24 16:23:27;;;;;;;3.65;0.65;;;10.80;99.90;;;;;;5087354;28;20024;-84
2023/03/24 16:25:53;;;;;;;0.60;0.47;;;10.70;99.90;;;;;;5028815;28;20095;-80
2023/03/24 16:28:20;;;;;;;2.00;0.50;;;10.70;99.90;;;;;;5079438;28;20103;-81
2023/03/24 16:30:54;;;;;;;1.55;0.30;;;10.60;99.90;;;;;;5063075;28;20047;-83
2023/03/24 16:33:20;;;;;;;1.70;0.40;;;10.60;99.90;;;;;;5082486;28;20050;-85
2023/03/24 16:35:46;;;;;;;0.75;0.50;;;10.50;99.90;;;;;;5049559;28;20021;-80
2023/03/24 16:38:13;;;;;;;0.65;0.40;;;10.50;99.90;;;;;;5083661;28;20035;-81